Decoded Metar for LFSL (BRIVE in FRANCE) (IATA:N/A) | Meteo·Mobile Aviation Weather
aviador You're here:

LFSL Decoded Metar

BRIVE in FRANCE
Report Time2018-12-16 17:30:00
UTC Time2018-12-16 18:02:01
Flight Rules mvfr MVFR
Wind190° at 02 kt
W.Decomp.*RWY 11: 0.3 kt HW 2.0 kt RCW
W.Rank190° ranks 20
Current wind is below 190° avg. (4.8)
Visibility9999 m
Phenomena:Light Shower Rain
Clouds:Broken 006 Hf
Broken 017 Hf
Overcast 056 Hf
Ceiling1,700 ft
Temp06°C (ISA -7)
Dew Point06°C (100% RH)
AAT4.4°C
QNH1014 hPa
Density Alt272 ft
Elevation1,016 ft
Report Wrong Elevation
Raw Report
LFSL 161730Z AUTO 19002KT 9999 BKN017 OVC056 06/06 Q1014 TEMPO
4000 -SHRA BKN006 SCT010TCU=

Extra information for LFSL:More info

Metar Taf Metar & Taf Last 4 Metars F.Rules Stats Wind Profile Meteogram Temp Stats Airport Information Weather charts Add Link Nearby VenuesMetar ALERT Operation Metar Decoded Social comments